Orbital elements of FENGYUN 1C DEB
| Launched | 9 May 1999 |
| Flight ended | – |
| Launch site | Taiyuan Space Center, PRC |
| Owner | People's Republic of China |
| NORAD ID | 30699 |
| Date fetched |
Epoch osculation |
Inc. [°] |
Ecc. | RA asc node [hr] |
Arg Peri. [°] |
Mean anom [°] |
Mean motion [rev/day] |
Abs. mag |
| Date fetched |
Epoch osculation |
Inc. [°] |
Ecc. | RA asc node [hr] |
Arg Peri. [°] |
Mean anom [°] |
Mean motion [rev/day] |
Abs. mag |
| 2026 May 05 17:57 | 2026 May 05 08:36:03 | 99.3217 | 0.00043 | 17.6296 | 178.4482 | 181.6723 | 14.49613 | – |
| 2026 May 04 17:57 | 2026 Apr 30 07:40:07 | 99.3186 | 0.00041 | 17.2584 | 189.2882 | 181.6723 | 14.49613 | – |
| 2026 May 03 17:57 | 2026 Apr 30 07:40:07 | 99.3186 | 0.00041 | 17.2584 | 189.2882 | 181.6723 | 14.49613 | – |
| 2026 May 02 17:57 | 2026 Apr 30 07:40:07 | 99.3186 | 0.00041 | 17.2584 | 189.2882 | 181.6723 | 14.49613 | – |
| 2026 May 01 17:56 | 2026 Apr 30 07:40:07 | 99.3186 | 0.00041 | 17.2584 | 189.2882 | 181.6723 | 14.49613 | – |
| 2026 Apr 30 17:56 | 2026 Apr 30 07:40:07 | 99.3186 | 0.00041 | 17.2584 | 189.2882 | 181.6723 | 14.49613 | – |
| 2026 Apr 29 17:57 | 2026 Apr 24 07:32:06 | 99.3188 | 0.00038 | 16.8163 | 203.2336 | 181.6723 | 14.49613 | – |
| 2026 Apr 28 17:56 | 2026 Apr 24 07:32:06 | 99.3188 | 0.00038 | 16.8163 | 203.2336 | 181.6723 | 14.49613 | – |
| 2026 Apr 27 17:58 | 2026 Apr 24 07:32:06 | 99.3188 | 0.00038 | 16.8163 | 203.2336 | 181.6723 | 14.49613 | – |
| 2026 Apr 26 17:58 | 2026 Apr 24 07:32:06 | 99.3188 | 0.00038 | 16.8163 | 203.2336 | 181.6723 | 14.49613 | – |
| 2026 Apr 25 17:58 | 2026 Apr 24 07:32:06 | 99.3188 | 0.00038 | 16.8163 | 203.2336 | 181.6723 | 14.49613 | – |
| 2026 Apr 24 17:59 | 2026 Apr 24 07:32:06 | 99.3188 | 0.00038 | 16.8163 | 203.2336 | 181.6723 | 14.49613 | – |
| 2026 Apr 23 17:57 | 2026 Apr 18 07:23:37 | 99.3187 | 0.00035 | 16.3743 | 217.9170 | 181.6723 | 14.49613 | – |
| 2026 Apr 22 17:57 | 2026 Apr 18 07:23:37 | 99.3187 | 0.00035 | 16.3743 | 217.9170 | 181.6723 | 14.49613 | – |
| 2026 Apr 21 17:57 | 2026 Apr 18 07:23:37 | 99.3187 | 0.00035 | 16.3743 | 217.9170 | 181.6723 | 14.49613 | – |
| 2026 Apr 20 17:57 | 2026 Apr 18 07:23:37 | 99.3187 | 0.00035 | 16.3743 | 217.9170 | 181.6723 | 14.49613 | – |
| 2026 Apr 19 17:58 | 2026 Apr 18 07:23:37 | 99.3187 | 0.00035 | 16.3743 | 217.9170 | 181.6723 | 14.49613 | – |
| 2026 Apr 18 17:56 | 2026 Apr 13 01:28:20 | 99.3170 | 0.00030 | 15.9882 | 231.7549 | 181.6723 | 14.49613 | – |
| 2026 Apr 16 17:57 | 2026 Apr 13 01:28:20 | 99.3170 | 0.00030 | 15.9882 | 231.7549 | 181.6723 | 14.49613 | – |
| 2026 Apr 14 17:57 | 2026 Apr 13 01:28:20 | 99.3170 | 0.00030 | 15.9882 | 231.7549 | 181.6723 | 14.49613 | – |
| 2026 Apr 13 17:57 | 2026 Apr 13 01:28:20 | 99.3170 | 0.00030 | 15.9882 | 231.7549 | 181.6723 | 14.49613 | – |
| 2026 Apr 12 17:57 | 2026 Apr 07 07:56:54 | 99.3169 | 0.00026 | 15.5665 | 247.2700 | 181.6723 | 14.49613 | – |
| 2026 Apr 11 17:57 | 2026 Apr 07 07:56:54 | 99.3169 | 0.00026 | 15.5665 | 247.2700 | 181.6723 | 14.49613 | – |
| 2026 Apr 10 17:58 | 2026 Apr 07 07:56:54 | 99.3169 | 0.00026 | 15.5665 | 247.2700 | 181.6723 | 14.49613 | – |
| 2026 Apr 09 18:01 | 2026 Apr 07 07:56:54 | 99.3169 | 0.00026 | 15.5665 | 247.2700 | 181.6723 | 14.49613 | – |
| 2026 Apr 08 17:57 | 2026 Apr 07 07:56:54 | 99.3169 | 0.00026 | 15.5665 | 247.2700 | 181.6723 | 14.49613 | – |